createdAt,value
2023-04-18T00:09:02.804Z,2.30
2023-04-18T00:19:02.449Z,2.40
2023-04-18T00:29:03.745Z,2.30
2023-04-18T00:39:04.619Z,2.60
2023-04-18T00:49:05.792Z,2.60
2023-04-18T00:59:07.000Z,2.30
2023-04-18T01:09:07.852Z,2.40
2023-04-18T01:19:09.108Z,2.60
2023-04-18T01:29:10.036Z,2.20
2023-04-18T01:39:11.120Z,2.60
2023-04-18T01:49:12.199Z,2.50
2023-04-18T01:59:13.283Z,2.70
2023-04-18T02:09:14.281Z,2.70
2023-04-18T02:19:15.338Z,3.10
2023-04-18T02:29:16.390Z,3.20
2023-04-18T02:49:18.525Z,3.30
2023-04-18T02:59:19.508Z,3.80
2023-04-18T03:09:20.770Z,3.50
2023-04-18T03:19:21.593Z,3.60
2023-04-18T03:29:23.791Z,3.70
2023-04-18T03:39:23.749Z,3.60
2023-04-18T03:49:24.969Z,3.80
2023-04-18T03:59:25.848Z,4.20
2023-04-18T04:09:26.809Z,4.40
2023-04-18T04:19:27.865Z,4.00
2023-04-18T04:29:28.969Z,4.20
2023-04-18T04:39:30.000Z,3.90
2023-04-18T04:49:31.041Z,3.50
2023-04-18T04:59:32.083Z,3.30
2023-04-18T05:09:33.333Z,4.10
2023-04-18T05:19:34.206Z,4.00
2023-04-18T05:29:35.443Z,3.60
2023-04-18T05:39:36.858Z,4.40
2023-04-18T05:49:37.479Z,4.30
2023-04-18T05:59:38.555Z,4.00
2023-04-18T06:09:39.895Z,4.20
2023-04-18T06:19:42.166Z,3.90
2023-04-18T06:29:42.895Z,4.30
2023-04-18T06:39:42.951Z,4.00
2023-04-18T06:49:44.099Z,3.30
2023-04-18T06:59:45.286Z,3.20
2023-04-18T07:09:46.284Z,3.00
2023-04-18T07:19:48.758Z,2.70
2023-04-18T07:29:49.265Z,2.50
2023-04-18T07:39:49.759Z,2.40
2023-04-18T07:59:52.110Z,2.30
2023-04-18T08:19:54.576Z,2.40
2023-04-18T08:29:55.762Z,1.90
2023-04-18T08:39:56.902Z,2.40
2023-04-18T08:49:58.141Z,2.20
2023-04-18T08:59:59.409Z,2.40
2023-04-18T09:10:00.705Z,2.20
2023-04-18T09:20:02.042Z,2.10
2023-04-18T09:30:03.582Z,3.00
2023-04-18T09:40:05.060Z,2.10
2023-04-18T09:50:06.243Z,1.50
2023-04-18T10:00:07.245Z,1.50
2023-04-18T10:10:08.588Z,1.40
2023-04-18T10:20:10.229Z,1.70
2023-04-18T10:30:11.400Z,1.70
2023-04-18T10:40:12.740Z,1.40
2023-04-18T10:50:14.349Z,1.30
2023-04-18T11:00:15.700Z,1.60
2023-04-18T11:10:17.216Z,1.30
2023-04-18T11:20:18.792Z,1.40
2023-04-18T11:30:20.203Z,1.40
2023-04-18T11:40:21.702Z,1.80
2023-04-18T11:50:23.437Z,1.70
2023-04-18T12:00:24.948Z,1.60
2023-04-18T12:10:26.668Z,1.60
2023-04-18T12:20:27.950Z,1.50
2023-04-18T12:40:30.610Z,1.30
2023-04-18T12:50:32.416Z,1.30
2023-04-18T13:00:33.562Z,1.40
2023-04-18T13:30:37.915Z,1.40
2023-04-18T13:40:39.310Z,1.40
2023-04-18T13:50:40.734Z,1.30
2023-04-18T14:00:42.418Z,1.20
2023-04-18T14:10:43.605Z,1.50
2023-04-18T14:20:45.127Z,1.40
2023-04-18T14:30:46.653Z,1.30
2023-04-18T14:40:47.762Z,1.30
2023-04-18T14:50:49.170Z,1.50
2023-04-18T15:00:51.769Z,1.50
2023-04-18T15:10:52.023Z,1.60
2023-04-18T15:20:53.174Z,1.70
2023-04-18T15:30:54.740Z,1.80
2023-04-18T15:40:55.786Z,1.70
2023-04-18T15:50:57.157Z,1.90
2023-04-18T16:00:58.533Z,1.90
2023-04-18T16:10:59.862Z,1.70
2023-04-18T16:21:01.296Z,2.10
2023-04-18T16:31:02.887Z,1.90
2023-04-18T16:41:04.354Z,2.20
2023-04-18T16:51:05.532Z,2.10
2023-04-18T17:01:06.748Z,2.20
2023-04-18T17:11:08.861Z,2.00
2023-04-18T17:21:09.472Z,2.10
2023-04-18T17:31:10.899Z,1.90
2023-04-18T17:41:12.254Z,1.70
2023-04-18T17:51:13.446Z,2.20
2023-04-18T18:01:14.693Z,2.70
2023-04-18T18:11:15.942Z,2.60
2023-04-18T18:21:17.278Z,2.90
2023-04-18T18:31:18.531Z,2.40
2023-04-18T18:41:19.650Z,2.30
2023-04-18T18:51:20.875Z,2.70
2023-04-18T19:01:22.333Z,3.40
2023-04-18T19:11:23.502Z,3.60
2023-04-18T19:21:24.797Z,4.20
2023-04-18T19:31:25.974Z,3.50
2023-04-18T19:41:27.155Z,2.90
2023-04-18T19:51:28.732Z,2.80
2023-04-18T20:01:29.607Z,2.70
2023-04-18T20:11:30.747Z,2.70
2023-04-18T20:21:33.468Z,2.60
2023-04-18T20:31:33.263Z,2.70
2023-04-18T20:41:34.510Z,2.70
2023-04-18T20:51:35.592Z,2.90
2023-04-18T21:01:37.244Z,2.90
2023-04-18T21:11:37.818Z,3.10
2023-04-18T21:21:39.173Z,2.70
2023-04-18T21:31:40.169Z,3.10
2023-04-18T21:41:41.588Z,3.20
2023-04-18T22:01:43.558Z,3.20
2023-04-18T22:11:44.672Z,2.70
2023-04-18T22:31:46.940Z,2.50
2023-04-18T22:51:48.965Z,2.00
2023-04-18T23:01:50.088Z,2.70
2023-04-18T23:11:51.171Z,2.50
2023-04-18T23:21:52.294Z,2.30
2023-04-18T23:31:53.487Z,2.40
2023-04-18T23:51:55.682Z,2.20
